createdAt,value
2022-11-28T00:01:43.856Z,47.08
2022-11-28T00:06:49.161Z,47.37
2022-11-28T00:11:51.442Z,47.47
2022-11-28T00:16:57.803Z,47.77
2022-11-28T00:21:59.586Z,47.83
2022-11-28T00:27:01.356Z,47.85
2022-11-28T00:32:03.626Z,47.69
2022-11-28T00:37:06.353Z,47.81
2022-11-28T00:42:08.121Z,47.77
2022-11-28T00:47:09.861Z,47.60
2022-11-28T00:52:11.603Z,47.69
2022-11-28T00:57:13.458Z,47.66
2022-11-28T01:02:15.356Z,47.84
2022-11-28T01:07:17.425Z,47.90
2022-11-28T01:12:19.261Z,48.14
2022-11-28T01:17:20.883Z,47.98
2022-11-28T01:22:22.647Z,47.78
2022-11-28T01:27:24.729Z,47.76
2022-11-28T01:32:26.459Z,47.82
2022-11-28T01:37:29.312Z,47.74
2022-11-28T01:42:31.392Z,47.95
2022-11-28T01:47:34.503Z,47.99
2022-11-28T01:52:39.704Z,47.64
2022-11-28T01:57:42.568Z,47.72
2022-11-28T02:03:27.745Z,47.53
2022-11-28T02:08:34.135Z,47.62
2022-11-28T02:14:09.201Z,47.93
2022-11-28T02:19:37.602Z,47.92
2022-11-28T02:24:55.150Z,47.73
2022-11-28T02:30:15.256Z,47.63
2022-11-28T02:35:28.509Z,47.22
2022-11-28T02:40:49.327Z,46.92
2022-11-28T02:46:06.153Z,47.16
2022-11-28T02:51:17.285Z,47.01
2022-11-28T02:56:19.645Z,46.86
2022-11-28T03:01:31.241Z,46.60
2022-11-28T03:07:01.598Z,46.80
2022-11-28T03:12:22.327Z,47.06
2022-11-28T03:17:59.629Z,47.06
2022-11-28T03:23:10.732Z,46.86
2022-11-28T03:28:23.357Z,46.65
2022-11-28T03:33:30.645Z,46.77
2022-11-28T03:38:38.958Z,46.72
2022-11-28T03:43:47.551Z,46.63
2022-11-28T03:48:54.843Z,46.89
2022-11-28T03:54:03.871Z,47.09
2022-11-28T03:59:13.102Z,47.03
2022-11-28T04:04:39.402Z,47.19
2022-11-28T04:09:53.875Z,47.18
2022-11-28T04:15:04.058Z,47.16
2022-11-28T04:20:26.404Z,47.03
2022-11-28T04:25:32.967Z,47.42
2022-11-28T04:30:37.242Z,47.22
2022-11-28T04:35:47.500Z,47.55
2022-11-28T04:40:57.446Z,47.72
2022-11-28T04:46:10.042Z,47.65
2022-11-28T04:51:27.728Z,47.44
2022-11-28T04:56:39.032Z,47.47
2022-11-28T05:01:43.632Z,47.42
2022-11-28T05:06:45.778Z,47.56
2022-11-28T05:11:47.558Z,47.65
2022-11-28T05:16:49.783Z,47.67
2022-11-28T05:21:53.562Z,47.56
2022-11-28T05:26:55.351Z,47.58
2022-11-28T05:31:57.271Z,47.63
2022-11-28T05:36:59.123Z,47.67
2022-11-28T05:42:00.882Z,47.53
2022-11-28T05:47:02.561Z,47.40
2022-11-28T05:52:04.542Z,47.42
2022-11-28T05:57:07.339Z,47.64
2022-11-28T06:02:09.273Z,47.68
2022-11-28T06:07:11.132Z,47.31
2022-11-28T06:12:12.982Z,47.34
2022-11-28T06:17:14.858Z,47.43
2022-11-28T06:22:16.611Z,47.37
2022-11-28T06:27:18.417Z,47.55
2022-11-28T06:32:22.165Z,47.43
2022-11-28T06:37:24.200Z,47.19
2022-11-28T06:42:25.941Z,47.39
2022-11-28T06:47:27.562Z,46.66
2022-11-28T06:52:29.318Z,46.42
2022-11-28T06:57:32.723Z,46.93
2022-11-28T07:02:34.591Z,46.83
2022-11-28T07:07:52.775Z,46.67
2022-11-28T07:13:05.180Z,46.47
2022-11-28T07:18:07.317Z,46.49
2022-11-28T07:23:09.043Z,46.09
2022-11-28T07:28:10.746Z,46.25
2022-11-28T07:33:12.398Z,46.27
2022-11-28T07:38:33.558Z,46.11
2022-11-28T07:43:35.446Z,46.41
2022-11-28T07:48:37.760Z,46.33
2022-11-28T07:53:40.759Z,46.21
2022-11-28T07:58:44.244Z,46.00
2022-11-28T08:03:46.951Z,45.93
2022-11-28T08:08:50.567Z,45.65
2022-11-28T08:13:55.037Z,45.91
2022-11-28T08:19:03.763Z,45.70
2022-11-28T08:24:08.176Z,45.66
2022-11-28T08:29:10.085Z,45.46
2022-11-28T08:34:13.045Z,45.25
2022-11-28T08:39:23.832Z,45.21
2022-11-28T08:44:30.162Z,44.89
2022-11-28T08:49:32.907Z,44.64
2022-11-28T08:54:34.901Z,44.67
2022-11-28T08:59:37.237Z,44.97
2022-11-28T09:04:39.058Z,44.58
2022-11-28T09:09:40.909Z,44.59
2022-11-28T09:14:42.722Z,44.79
2022-11-28T09:19:44.994Z,44.53
2022-11-28T09:24:47.684Z,44.48
2022-11-28T09:29:49.950Z,44.19
2022-11-28T09:34:51.808Z,44.07
2022-11-28T09:40:11.989Z,43.49
2022-11-28T09:45:18.943Z,43.67
2022-11-28T09:50:32.136Z,43.34
2022-11-28T09:55:45.171Z,43.33
2022-11-28T10:01:01.299Z,43.35
2022-11-28T10:06:18.228Z,43.19
2022-11-28T10:11:52.240Z,43.08
2022-11-28T10:16:59.070Z,42.76
2022-11-28T10:22:05.176Z,42.67
2022-11-28T10:27:07.268Z,42.71
2022-11-28T10:32:16.494Z,42.32
2022-11-28T10:37:27.643Z,42.18
2022-11-28T10:42:52.083Z,42.25
2022-11-28T10:48:38.377Z,42.29
2022-11-28T10:53:59.364Z,42.11
2022-11-28T10:59:20.754Z,41.82
2022-11-28T11:04:26.858Z,41.70
2022-11-28T11:09:28.730Z,41.25
2022-11-28T11:14:42.061Z,41.06
2022-11-28T11:19:44.053Z,40.70
2022-11-28T11:25:14.420Z,40.70
2022-11-28T11:30:46.855Z,40.70
2022-11-28T11:35:49.591Z,40.51
2022-11-28T11:40:52.134Z,40.42
2022-11-28T11:46:14.613Z,40.75
2022-11-28T11:51:28.847Z,40.52
2022-11-28T11:56:36.680Z,40.42
2022-11-28T12:01:40.299Z,40.44
2022-11-28T12:06:50.790Z,40.01
2022-11-28T12:11:59.596Z,39.95
2022-11-28T12:17:48.372Z,39.94
2022-11-28T12:23:01.785Z,39.86
2022-11-28T12:28:32.921Z,39.43
2022-11-28T12:33:43.709Z,39.50
2022-11-28T12:38:54.703Z,39.37
2022-11-28T12:44:30.539Z,39.07
2022-11-28T12:49:52.316Z,39.03
2022-11-28T12:55:04.953Z,39.07
2022-11-28T13:00:14.904Z,38.57
2022-11-28T13:05:22.975Z,38.57
2022-11-28T13:10:50.626Z,38.64
2022-11-28T13:16:27.038Z,39.16
2022-11-28T13:21:44.716Z,39.96
2022-11-28T13:26:59.088Z,40.29
2022-11-28T13:32:11.368Z,40.31
2022-11-28T13:43:08.208Z,41.07
2022-11-28T13:54:22.357Z,41.27
2022-11-28T13:59:25.350Z,41.46
2022-11-28T14:04:29.744Z,41.63
2022-11-28T14:09:44.655Z,41.79
2022-11-28T14:15:10.005Z,42.15
2022-11-28T14:20:14.896Z,42.29
2022-11-28T14:25:19.885Z,42.45
2022-11-28T14:30:43.535Z,42.45
2022-11-28T14:35:54.553Z,42.52
2022-11-28T14:40:56.943Z,42.65
2022-11-28T14:46:24.478Z,42.76
2022-11-28T14:51:47.378Z,42.91
2022-11-28T14:56:56.651Z,42.92
2022-11-28T15:02:11.198Z,43.11
2022-11-28T15:08:05.410Z,43.19
2022-11-28T15:13:19.476Z,43.37
2022-11-28T15:18:25.131Z,43.49
2022-11-28T15:23:33.223Z,43.62
2022-11-28T15:28:36.276Z,43.81
2022-11-28T15:33:39.700Z,43.95
2022-11-28T15:38:43.529Z,44.02
2022-11-28T15:43:46.425Z,44.01
2022-11-28T15:48:50.515Z,43.99
2022-11-28T15:53:52.388Z,44.04
2022-11-28T15:58:54.918Z,44.05
2022-11-28T16:04:05.439Z,43.97
2022-11-28T16:09:23.945Z,43.94
2022-11-28T16:14:30.270Z,43.98
2022-11-28T16:19:35.166Z,43.84
2022-11-28T16:24:58.030Z,43.93
2022-11-28T16:30:01.768Z,43.80
2022-11-28T16:35:04.900Z,43.87
2022-11-28T16:40:21.870Z,43.89
2022-11-28T16:45:33.198Z,43.93
2022-11-28T16:50:36.431Z,43.96
2022-11-28T16:55:39.531Z,43.92
2022-11-28T17:00:50.381Z,43.87
2022-11-28T17:05:52.253Z,43.86
2022-11-28T17:10:54.050Z,44.15
2022-11-28T17:15:55.784Z,44.23
2022-11-28T17:20:57.633Z,44.33
2022-11-28T17:25:59.440Z,44.30
2022-11-28T17:31:01.226Z,44.29
2022-11-28T17:36:03.851Z,44.45
2022-11-28T17:41:06.215Z,44.47
2022-11-28T17:46:08.787Z,44.51
2022-11-28T17:51:10.795Z,44.53
2022-11-28T17:56:13.104Z,44.73
2022-11-28T18:01:19.113Z,44.73
2022-11-28T18:06:22.729Z,44.81
2022-11-28T18:11:24.874Z,44.73
2022-11-28T18:16:26.743Z,44.76
2022-11-28T18:21:28.563Z,44.72
2022-11-28T18:26:30.358Z,44.72
2022-11-28T18:31:34.401Z,44.72
2022-11-28T18:36:38.105Z,44.75
2022-11-28T18:41:40.796Z,44.79
2022-11-28T18:46:42.599Z,44.79
2022-11-28T18:51:44.820Z,44.69
2022-11-28T18:56:47.312Z,44.73
2022-11-28T19:01:49.255Z,44.69
2022-11-28T19:06:51.991Z,44.78
2022-11-28T19:11:56.126Z,44.64
2022-11-28T19:16:58.438Z,44.66
2022-11-28T19:22:00.500Z,44.83
2022-11-28T19:27:04.147Z,45.04
2022-11-28T19:32:06.261Z,45.01
2022-11-28T19:37:08.052Z,44.99
2022-11-28T19:42:09.909Z,45.06
2022-11-28T19:47:11.961Z,45.15
2022-11-28T19:52:14.024Z,45.44
2022-11-28T19:57:15.905Z,45.58
2022-11-28T20:02:20.367Z,45.73
2022-11-28T20:07:22.591Z,45.92
2022-11-28T20:12:24.620Z,46.12
2022-11-28T20:17:26.619Z,46.08
2022-11-28T20:22:28.293Z,46.34
2022-11-28T20:27:30.094Z,46.51
2022-11-28T20:32:32.303Z,46.50
2022-11-28T20:37:34.221Z,46.30
2022-11-28T20:42:39.823Z,46.08
2022-11-28T20:47:45.481Z,46.00
2022-11-28T20:52:51.335Z,45.84
2022-11-28T20:57:53.206Z,45.68
2022-11-28T21:02:55.052Z,45.71
2022-11-28T21:07:56.999Z,45.69
2022-11-28T21:12:58.917Z,45.57
2022-11-28T21:18:01.139Z,45.72
2022-11-28T21:23:03.056Z,45.68
2022-11-28T21:28:05.393Z,45.63
2022-11-28T21:33:07.126Z,45.48
2022-11-28T21:38:09.052Z,44.95
2022-11-28T21:43:10.756Z,44.68
2022-11-28T21:48:12.994Z,44.82
2022-11-28T21:53:16.875Z,45.23
2022-11-28T21:58:22.423Z,45.33
2022-11-28T22:03:28.330Z,45.71
2022-11-28T22:08:30.269Z,46.19
2022-11-28T22:13:39.591Z,45.94
2022-11-28T22:18:41.511Z,45.75
2022-11-28T22:23:43.830Z,45.72
2022-11-28T22:28:49.116Z,45.88
2022-11-28T22:33:54.972Z,45.78
2022-11-28T22:38:58.092Z,45.97
2022-11-28T22:44:01.805Z,46.21
2022-11-28T22:49:04.955Z,46.08
2022-11-28T22:54:07.478Z,45.97
2022-11-28T22:59:13.956Z,45.98
2022-11-28T23:04:16.297Z,46.19
2022-11-28T23:09:18.721Z,46.12
2022-11-28T23:14:20.688Z,46.12
2022-11-28T23:19:23.111Z,45.97
2022-11-28T23:24:25.079Z,45.93
2022-11-28T23:29:27.459Z,45.98
2022-11-28T23:34:30.008Z,46.02
2022-11-28T23:39:33.869Z,46.03
2022-11-28T23:44:39.189Z,45.92
2022-11-28T23:49:40.896Z,46.10
2022-11-28T23:54:43.000Z,46.30
2022-11-28T23:59:44.963Z,46.16
